Time;durP1;ratioP1;P1;durP2;ratioP2;P2;SDS_P1;SDS_P2;PMS_P1;PMS_P2;Temp;Humidity;BMP_temperature;BMP_pressure;BME280_temperature;BME280_humidity;BME280_pressure;Samples;Min_cycle;Max_cycle;Signal;HPM_P1;HPM_P2
2021/03/21 00:01:24;;;;;;;16.32;12.75;;;;;;;-1.32;81.58;99362.16;1703248;83;21365;-60
2021/03/21 00:03:54;;;;;;;22.17;14.98;;;;;;;-1.27;81.46;99364.84;1691327;83;21046;-60
2021/03/21 00:06:22;;;;;;;19.85;15.18;;;;;;;-1.22;81.15;99358.02;1705872;84;21136;-61
2021/03/21 00:08:49;;;;;;;17.25;13.98;;;;;;;-1.21;81.02;99358.39;1702235;84;21227;-61
2021/03/21 00:11:17;;;;;;;17.17;13.78;;;;;;;-1.16;80.92;99351.56;1704131;83;21148;-60
2021/03/21 00:13:45;;;;;;;17.82;13.98;;;;;;;-1.13;80.56;99348.76;1680333;84;21389;-60
2021/03/21 00:16:12;;;;;;;13.70;11.73;;;;;;;-1.15;80.10;99346.27;1701865;83;21136;-59
2021/03/21 00:18:40;;;;;;;17.05;12.55;;;;;;;-1.15;79.55;99351.48;1700283;83;21038;-59
2021/03/21 00:21:11;;;;;;;14.68;11.57;;;;;;;-1.18;78.82;99349.53;1698829;83;21136;-60
2021/03/21 00:23:38;;;;;;;13.30;11.22;;;;;;;-1.20;78.59;99347.49;1704182;83;21582;-59
2021/03/21 00:26:06;;;;;;;13.43;11.75;;;;;;;-1.23;77.90;99348.53;1705854;83;21277;-61
2021/03/21 00:28:35;;;;;;;11.83;10.58;;;;;;;-1.30;77.51;99338.94;1704792;83;21022;-61
2021/03/21 00:31:03;;;;;;;13.32;10.70;;;;;;;-1.30;77.33;99345.46;1703117;84;21118;-61
2021/03/21 00:33:33;;;;;;;16.07;11.38;;;;;;;-1.34;76.82;99344.00;1701792;83;21204;-61
2021/03/21 00:36:00;;;;;;;15.95;11.33;;;;;;;-1.37;76.59;99344.20;1705998;83;21594;-62
2021/03/21 00:38:37;;;;;;;13.68;10.40;;;;;;;-1.44;76.44;99339.02;1705845;83;21369;-62
2021/03/21 00:41:06;;;;;;;13.00;10.05;;;;;;;-1.50;76.45;99335.48;1705714;83;21140;-61
2021/03/21 00:43:35;;;;;;;14.98;10.68;;;;;;;-1.56;76.49;99335.86;1703571;84;21022;-60
2021/03/21 00:46:03;;;;;;;15.55;10.18;;;;;;;-1.64;76.49;99334.70;1703806;84;21025;-60
2021/03/21 00:48:36;;;;;;;14.23;11.57;;;;;;;-1.70;76.78;99337.23;1704230;83;21187;-60
2021/03/21 00:51:06;;;;;;;14.50;11.22;;;;;;;-1.77;76.87;99333.31;1706000;83;22247;-61
2021/03/21 00:53:33;;;;;;;11.75;9.98;;;;;;;-1.84;77.16;99328.12;1697439;83;21155;-60
2021/03/21 00:56:01;;;;;;;14.47;10.85;;;;;;;-1.88;77.26;99327.46;1704119;83;21175;-61
2021/03/21 00:58:28;;;;;;;14.03;11.03;;;;;;;-1.91;77.43;99321.16;1703769;83;21077;-60
2021/03/21 01:00:59;;;;;;;14.03;10.35;;;;;;;-1.93;77.63;99320.89;1705698;83;21234;-60
2021/03/21 01:03:27;;;;;;;14.50;11.97;;;;;;;-1.91;77.78;99317.72;1699060;84;21368;-61
2021/03/21 01:05:58;;;;;;;16.65;11.35;;;;;;;-1.92;77.72;99313.42;1699983;83;21148;-60
2021/03/21 01:08:31;;;;;;;17.20;12.58;;;;;;;-1.96;77.76;99313.25;1695618;83;20950;-59
2021/03/21 01:11:05;;;;;;;12.78;10.32;;;;;;;-1.99;78.04;99304.31;1702033;83;21646;-59
2021/03/21 01:13:34;;;;;;;14.03;11.38;;;;;;;-2.02;78.15;99300.59;1705006;83;21143;-59
2021/03/21 01:16:05;;;;;;;13.22;11.05;;;;;;;-2.06;78.40;99297.82;1701219;83;21293;-59
2021/03/21 01:18:34;;;;;;;15.65;11.33;;;;;;;-2.11;78.49;99294.17;1705388;83;21203;-61
2021/03/21 01:21:03;;;;;;;16.12;11.05;;;;;;;-2.16;78.77;99293.63;1705886;84;21127;-59
2021/03/21 01:23:30;;;;;;;16.73;10.90;;;;;;;-2.20;78.99;99293.92;1695720;83;21083;-60
2021/03/21 01:25:58;;;;;;;13.85;10.45;;;;;;;-2.26;79.20;99289.92;1692082;83;21125;-61
2021/03/21 01:28:33;;;;;;;13.75;10.98;;;;;;;-2.27;79.33;99284.82;1704389;83;21479;-60
2021/03/21 01:31:02;;;;;;;17.55;11.68;;;;;;;-2.31;79.45;99280.71;1706697;83;20961;-60
2021/03/21 01:33:31;;;;;;;13.95;11.50;;;;;;;-2.34;79.49;99277.83;1695507;83;21124;-61
2021/03/21 01:35:59;;;;;;;15.43;10.82;;;;;;;-2.37;79.73;99274.59;1688041;83;20974;-59
2021/03/21 01:38:27;;;;;;;14.18;11.25;;;;;;;-2.36;79.94;99273.64;1669131;83;21216;-60
2021/03/21 01:40:59;;;;;;;17.35;12.60;;;;;;;-2.35;80.19;99265.75;1688918;83;21304;-61
2021/03/21 01:43:34;;;;;;;16.80;12.25;;;;;;;-2.39;80.00;99259.50;1703456;83;21209;-61
2021/03/21 01:46:02;;;;;;;18.07;12.73;;;;;;;-2.42;80.12;99259.72;1684960;83;21092;-62
2021/03/21 01:48:48;;;;;;;16.50;12.20;;;;;;;-2.45;80.08;99244.27;1693102;83;21152;-62
2021/03/21 01:51:31;;;;;;;18.10;13.18;;;;;;;-2.48;80.11;99257.02;1689015;83;21076;-61
2021/03/21 01:54:05;;;;;;;20.75;14.33;;;;;;;-2.51;80.13;99251.53;1684341;83;21208;-62
2021/03/21 01:56:34;;;;;;;20.10;13.78;;;;;;;-2.53;80.20;99246.86;1711707;83;21045;-62
2021/03/21 01:59:09;;;;;;;19.45;14.25;;;;;;;-2.56;80.28;99242.33;1682452;83;21601;-60
2021/03/21 02:01:37;;;;;;;15.98;11.85;;;;;;;-2.60;80.39;99241.66;1700102;83;28331;-61
2021/03/21 02:04:06;;;;;;;15.53;11.83;;;;;;;-2.63;80.47;99242.30;1703011;83;21152;-62
2021/03/21 02:06:42;;;;;;;17.87;13.50;;;;;;;-2.68;80.31;99230.03;1706752;83;21219;-61
2021/03/21 02:09:24;;;;;;;17.98;12.30;;;;;;;-2.68;80.31;99230.03;1711297;83;20962;-61
2021/03/21 02:12:09;;;;;;;14.45;11.28;;;;;;;-2.67;80.45;99223.45;1705401;83;21049;-60
2021/03/21 02:15:23;;;;;;;16.50;11.83;;;;;;;-2.62;80.81;99221.85;1811990;78;22743;-59
2021/03/21 02:18:23;;;;;;;14.40;10.48;;;;;;;-2.69;80.94;99216.20;1778668;79;20910;-60
2021/03/21 02:20:56;;;;;;;18.73;11.85;;;;;;;-2.69;80.94;99216.20;1767629;79;21205;-60
2021/03/21 02:23:52;;;;;;;15.85;11.18;;;;;;;-2.73;81.16;99217.76;1772704;79;21033;-61
2021/03/21 02:27:14;;;;;;;15.50;11.18;;;;;;;-2.76;81.35;99215.34;1775568;79;20993;-61
2021/03/21 02:29:59;;;;;;;17.23;12.88;;;;;;;-2.77;81.38;99214.98;1787864;79;20977;-60
2021/03/21 02:32:40;;;;;;;13.80;10.63;;;;;;;-2.79;81.50;99218.16;1793176;79;20986;-61
2021/03/21 02:35:50;;;;;;;13.75;11.03;;;;;;;-2.82;81.51;99213.97;1780378;79;21131;-61
2021/03/21 02:38:46;;;;;;;15.85;12.10;;;;;;;-2.84;81.56;99206.70;1717129;82;21037;-60
2021/03/21 02:41:23;;;;;;;15.55;12.07;;;;;;;-2.86;81.63;99204.66;1712668;82;20942;-61
2021/03/21 02:44:11;;;;;;;16.25;12.40;;;;;;;-2.85;81.54;99199.84;1765997;81;21111;-60
2021/03/21 02:46:42;;;;;;;16.70;12.20;;;;;;;-2.83;81.58;99197.97;1751671;81;21016;-62
2021/03/21 02:49:24;;;;;;;17.92;11.68;;;;;;;-2.81;81.47;99196.09;1741122;81;21171;-62
2021/03/21 02:51:55;;;;;;;15.50;11.95;;;;;;;-2.80;81.40;99189.97;1714249;82;21143;-60
2021/03/21 02:54:27;;;;;;;15.85;11.63;;;;;;;-2.81;81.26;99186.14;1709944;82;21072;-60
2021/03/21 02:57:08;;;;;;;15.08;11.22;;;;;;;-2.81;81.25;99178.33;1721822;82;21178;-61
2021/03/21 02:59:43;;;;;;;15.43;10.70;;;;;;;-2.81;80.80;99176.57;1706877;83;21160;-61
2021/03/21 03:02:20;;;;;;;15.25;11.40;;;;;;;-2.81;80.80;99176.57;1734247;81;21198;-60
2021/03/21 03:05:04;;;;;;;13.55;11.10;;;;;;;-2.81;80.78;99173.97;1749767;81;21052;-62
2021/03/21 03:07:51;;;;;;;11.33;8.88;;;;;;;-2.81;80.60;99164.02;1730033;81;21148;-59
2021/03/21 03:10:24;;;;;;;15.68;11.45;;;;;;;-2.81;80.32;99177.87;1711101;82;21175;-59
2021/03/21 03:13:04;;;;;;;13.98;10.75;;;;;;;-2.85;80.20;99167.75;1726063;82;21013;-59
2021/03/21 03:15:32;;;;;;;18.55;9.55;;;;;;;-2.90;79.98;99170.64;1717961;82;21423;-60
2021/03/21 03:18:29;;;;;;;15.88;11.53;;;;;;;-2.93;79.95;99171.28;1784699;79;21140;-60
2021/03/21 03:21:23;;;;;;;17.02;10.95;;;;;;;-2.96;79.99;99164.96;1795051;79;20993;-60
2021/03/21 03:24:13;;;;;;;15.68;9.90;;;;;;;-2.98;79.84;99162.47;1775591;79;21081;-60
2021/03/21 03:26:55;;;;;;;16.95;11.78;;;;;;;-2.97;79.73;99171.92;1766475;79;20930;-61
2021/03/21 03:29:32;;;;;;;17.37;11.30;;;;;;;-3.00;79.58;99164.79;1749945;78;21372;-59
2021/03/21 03:32:01;;;;;;;18.80;11.63;;;;;;;-2.99;79.55;99161.23;1776843;78;21152;-62
2021/03/21 03:34:29;;;;;;;14.80;11.15;;;;;;;-2.99;79.38;99154.27;1771287;79;21029;-60
2021/03/21 03:36:59;;;;;;;17.52;12.35;;;;;;;-2.98;79.27;99157.72;1771338;78;21005;-61
2021/03/21 03:39:26;;;;;;;15.00;11.05;;;;;;;-2.97;79.17;99148.99;1791039;79;21152;-61
2021/03/21 03:42:17;;;;;;;15.20;11.60;;;;;;;-2.97;79.00;99146.39;1774326;79;22309;-59
2021/03/21 03:44:56;;;;;;;15.58;11.50;;;;;;;-2.96;78.90;99141.08;1780250;78;20962;-60
2021/03/21 03:48:04;;;;;;;17.73;12.40;;;;;;;-2.94;78.82;99139.67;1783810;79;20926;-61
2021/03/21 03:50:45;;;;;;;15.32;11.33;;;;;;;-2.93;78.74;99136.14;1786246;79;20982;-58
2021/03/21 03:53:54;;;;;;;13.95;10.32;;;;;;;-2.93;78.72;99131.78;1761966;79;21052;-60
2021/03/21 03:56:26;;;;;;;17.48;11.15;;;;;;;-2.96;78.61;99128.06;1765709;78;21353;-61
2021/03/21 03:59:21;;;;;;;13.15;10.08;;;;;;;-2.96;78.61;99128.06;1766849;79;20926;-62
2021/03/21 04:01:52;;;;;;;14.93;9.95;;;;;;;-2.96;78.69;99124.16;1777681;79;20997;-59
2021/03/21 04:04:57;;;;;;;14.47;9.90;;;;;;;-2.98;78.68;99119.52;1769499;79;21567;-59
2021/03/21 04:07:39;;;;;;;13.00;9.43;;;;;;;-2.99;78.65;99117.83;1708795;83;21119;-62
2021/03/21 04:10:19;;;;;;;11.53;9.73;;;;;;;-2.99;78.57;99114.39;1750976;79;21216;-60
2021/03/21 04:13:10;;;;;;;12.75;8.53;;;;;;;-3.01;78.54;99107.99;1767040;79;20994;-59
2021/03/21 04:15:42;;;;;;;14.30;10.32;;;;;;;-3.01;78.48;99109.75;1764793;79;21223;-60
2021/03/21 04:18:30;;;;;;;13.62;9.65;;;;;;;-3.05;78.48;99108.28;1765898;79;21112;-61
2021/03/21 04:21:24;;;;;;;13.62;9.75;;;;;;;-3.06;78.59;99106.59;1789343;79;21543;-60
2021/03/21 04:24:06;;;;;;;15.75;10.88;;;;;;;-3.06;78.60;99104.00;1796648;79;21358;-61
2021/03/21 04:26:47;;;;;;;12.18;9.20;;;;;;;-3.04;78.70;99097.77;1796522;79;21128;-62
2021/03/21 04:29:33;;;;;;;14.03;9.18;;;;;;;-2.97;78.65;99108.65;1749366;81;20990;-60
2021/03/21 04:32:03;;;;;;;11.28;8.68;;;;;;;-2.90;78.40;99099.06;1711618;82;21081;-61
2021/03/21 04:34:31;;;;;;;13.30;9.88;;;;;;;-2.77;78.25;99098.66;1765574;79;21041;-60
2021/03/21 04:36:58;;;;;;;12.98;9.60;;;;;;;-2.64;78.02;99094.81;1783713;79;21415;-60
2021/03/21 04:39:29;;;;;;;14.60;10.40;;;;;;;-2.49;77.77;99088.62;1767563;79;21049;-60
2021/03/21 04:42:22;;;;;;;12.82;10.40;;;;;;;-2.30;77.37;99085.67;1795655;79;21596;-61
2021/03/21 04:44:58;;;;;;;12.58;9.90;;;;;;;-2.12;76.79;99088.38;1767345;79;21024;-59
2021/03/21 04:47:29;;;;;;;11.53;9.95;;;;;;;-1.91;76.40;99081.75;1794418;79;22339;-59
2021/03/21 04:49:57;;;;;;;13.22;9.48;;;;;;;-1.74;75.64;99077.53;1755787;79;21413;-59
2021/03/21 04:53:07;;;;;;;15.83;9.83;;;;;;;-1.60;75.32;99069.63;1747100;79;20910;-61
2021/03/21 04:55:44;;;;;;;12.30;8.73;;;;;;;-1.41;74.96;99067.41;1780939;79;20984;-60
2021/03/21 04:58:19;;;;;;;10.85;8.83;;;;;;;-1.12;74.38;99069.80;1770198;79;20913;-62
2021/03/21 05:00:47;;;;;;;12.07;9.58;;;;;;;-0.86;73.70;99064.89;1757544;81;21106;-60
2021/03/21 05:03:26;;;;;;;12.53;9.95;;;;;;;-0.63;72.94;99060.16;1799491;79;21188;-61
2021/03/21 05:06:00;;;;;;;12.33;9.35;;;;;;;-0.38;72.32;99058.73;1758083;79;21574;-61
2021/03/21 05:08:33;;;;;;;11.80;9.33;;;;;;;-0.12;71.23;99048.50;1790325;79;21045;-60
2021/03/21 05:11:02;;;;;;;11.57;9.18;;;;;;;0.10;70.16;99049.52;1778085;79;20946;-62
2021/03/21 05:13:56;;;;;;;10.80;9.30;;;;;;;0.25;69.37;99042.66;1765561;79;21009;-61
2021/03/21 05:16:41;;;;;;;12.00;8.43;;;;;;;0.40;68.58;99040.17;1767832;79;21141;-62
2021/03/21 05:19:26;;;;;;;10.75;9.23;;;;;;;0.60;67.72;99038.63;1756313;79;21009;-60
2021/03/21 05:22:07;;;;;;;11.65;8.58;;;;;;;0.80;67.13;99030.08;1782139;79;20949;-61
2021/03/21 05:24:42;;;;;;;10.05;9.05;;;;;;;1.06;66.49;99027.55;1780604;79;21567;-61
2021/03/21 05:27:17;;;;;;;11.90;8.88;;;;;;;1.37;65.61;99025.93;1774883;79;21109;-62
2021/03/21 05:30:15;;;;;;;9.98;8.75;;;;;;;1.64;64.72;99031.54;1755033;79;21207;-58
2021/03/21 05:32:43;;;;;;;13.28;9.40;;;;;;;1.90;63.82;99022.03;1753833;80;21123;-60
2021/03/21 05:35:27;;;;;;;10.45;9.03;;;;;;;2.23;62.95;99021.84;1750623;79;20961;-62
2021/03/21 05:38:26;;;;;;;11.28;9.40;;;;;;;2.50;62.07;99017.70;1790394;79;21071;-61
2021/03/21 05:41:08;;;;;;;10.38;8.58;;;;;;;2.73;61.08;99021.48;1778033;79;21123;-62
2021/03/21 05:44:04;;;;;;;10.70;9.20;;;;;;;3.02;60.21;99015.85;1745838;79;21372;-59
2021/03/21 05:46:49;;;;;;;10.68;9.53;;;;;;;3.24;59.15;99012.98;1768346;79;20930;-60
2021/03/21 05:49:26;;;;;;;11.00;9.77;;;;;;;3.45;57.92;99016.34;1759525;79;21064;-61
2021/03/21 05:52:10;;;;;;;11.88;10.05;;;;;;;3.63;57.48;99010.75;1746149;79;21068;-60
2021/03/21 05:55:07;;;;;;;12.53;9.80;;;;;;;3.87;56.98;99013.45;1777521;79;21001;-62
2021/03/21 05:58:15;;;;;;;12.85;10.55;;;;;;;4.14;56.19;99007.84;1783630;79;22032;-61
2021/03/21 06:01:06;;;;;;;15.58;9.80;;;;;;;4.44;55.28;99004.14;1776630;79;21067;-61
2021/03/21 06:04:16;;;;;;;11.33;9.83;;;;;;;4.72;53.33;99001.09;1783018;79;20928;-61
2021/03/21 06:10:11;;;;;;;16.00;10.10;;;;;;;4.77;51.53;98997.02;1675599;85;21218;-60
2021/03/21 06:13:41;;;;;;;16.07;9.70;;;;;;;5.02;51.14;98999.48;1675818;85;21192;-61
2021/03/21 06:16:49;;;;;;;10.23;8.90;;;;;;;5.28;50.58;98998.28;1666161;84;21043;-62
2021/03/21 06:19:47;;;;;;;10.60;8.75;;;;;;;5.44;49.01;98995.83;1649975;85;21150;-61
2021/03/21 06:22:56;;;;;;;12.70;8.33;;;;;;;5.55;48.75;98996.42;1684399;83;21076;-60
2021/03/21 06:26:10;;;;;;;10.90;8.57;;;;;;;5.74;48.03;98989.33;1714497;83;21112;-62
2021/03/21 06:29:15;;;;;;;10.32;9.18;;;;;;;5.83;47.26;98979.20;1695954;84;21258;-61
2021/03/21 06:32:14;;;;;;;11.43;8.80;;;;;;;5.92;47.28;98983.58;1655520;84;21068;-61
2021/03/21 06:35:17;;;;;;;9.03;8.00;;;;;;;6.10;45.75;98969.37;1696593;83;21033;-60
2021/03/21 06:38:21;;;;;;;9.93;8.75;;;;;;;6.08;43.87;98975.78;1701535;84;21123;-60
2021/03/21 06:41:18;;;;;;;10.60;9.00;;;;;;;6.04;43.42;98975.77;1674719;84;21159;-60
2021/03/21 06:44:19;;;;;;;10.65;9.55;;;;;;;6.02;43.66;98965.34;1703453;83;22699;-59
2021/03/21 06:47:25;;;;;;;12.23;9.00;;;;;;;6.20;43.31;98958.21;1644812;84;21106;-63
2021/03/21 06:50:31;;;;;;;10.03;8.68;;;;;;;6.37;43.22;98956.51;1698540;84;21243;-60
2021/03/21 06:53:39;;;;;;;9.80;8.03;;;;;;;6.52;42.66;98956.75;1679784;83;21921;-62
2021/03/21 06:56:30;;;;;;;;;;;;;;;6.97;42.04;98950.68;1699607;83;21198;-62
2021/03/21 06:59:27;;;;;;;12.23;8.25;;;;;;;7.30;40.24;98947.65;1709303;83;21726;-62
2021/03/21 07:02:28;;;;;;;10.63;7.60;;;;;;;7.32;38.44;98933.27;1821972;76;22702;-65
2021/03/21 07:05:37;;;;;;;9.13;6.90;;;;;;;7.22;37.64;98929.91;1786706;79;21057;-66
2021/03/21 07:08:26;;;;;;;9.00;7.78;;;;;;;7.26;37.47;98929.94;1792079;79;21408;-65
2021/03/21 07:11:20;;;;;;;14.63;7.58;;;;;;;7.47;36.16;98921.53;1792006;79;21012;-64
2021/03/21 07:14:21;;;;;;;9.58;7.42;;;;;;;7.42;36.18;98920.70;1799982;77;21001;-63
2021/03/21 07:17:08;;;;;;;8.80;6.95;;;;;;;7.71;36.30;98914.10;1734838;81;20992;-62
2021/03/21 07:20:19;;;;;;;13.62;8.18;;;;;;;8.06;35.08;98919.02;1734826;81;21045;-62
2021/03/21 07:23:31;;;;;;;13.08;7.85;;;;;;;7.98;33.85;98905.78;1644027;85;21222;-61
2021/03/21 07:26:19;;;;;;;10.68;7.80;;;;;;;7.86;34.06;98904.48;1711706;82;21656;-63
2021/03/21 07:29:14;;;;;;;11.33;7.90;;;;;;;7.90;34.84;98897.36;1711419;82;20993;-63
2021/03/21 07:32:16;;;;;;;8.90;7.50;;;;;;;7.95;33.20;98900.33;1731083;82;21155;-63
2021/03/21 07:35:02;;;;;;;11.22;7.60;;;;;;;7.86;33.36;98899.19;1725375;82;21236;-62
2021/03/21 07:37:57;;;;;;;15.90;8.78;;;;;;;7.85;33.83;98900.17;1727168;81;21438;-63
2021/03/21 07:40:51;;;;;;;10.60;7.33;;;;;;;7.83;33.39;98891.08;1734919;81;21223;-63
2021/03/21 07:43:58;;;;;;;9.60;6.28;;;;;;;7.74;32.92;98893.42;1735204;80;21103;-65
2021/03/21 07:46:54;;;;;;;9.13;7.65;;;;;;;7.68;33.25;98873.39;1732039;82;21159;-66
2021/03/21 07:49:39;;;;;;;10.40;8.18;;;;;;;8.10;33.67;98884.59;1725211;81;21219;-67
2021/03/21 07:52:22;;;;;;;10.50;7.72;;;;;;;8.50;32.52;98874.38;1725925;82;21381;-65
2021/03/21 07:54:57;;;;;;;17.52;8.43;;;;;;;8.50;32.29;98867.27;1752582;81;21009;-65
2021/03/21 07:57:55;;;;;;;14.35;7.97;;;;;;;8.39;31.47;98859.71;1751209;80;21566;-64
2021/03/21 08:00:22;;;;;;;9.70;8.05;;;;;;;8.25;31.52;98854.23;1656149;84;21277;-58
2021/03/21 08:03:20;;;;;;;9.20;7.45;;;;;;;8.10;31.43;98843.53;1755423;79;21068;-63
2021/03/21 08:05:53;;;;;;;11.70;6.87;;;;;;;8.11;31.83;98843.04;1774327;79;21538;-61
2021/03/21 08:08:28;;;;;;;9.05;7.47;;;;;;;8.55;36.30;98841.06;1787024;78;21037;-60
2021/03/21 08:10:59;;;;;;;9.75;7.62;;;;;;;8.90;31.97;98839.73;1750403;81;21129;-62
2021/03/21 08:13:52;;;;;;;10.88;8.30;;;;;;;8.92;32.17;98828.44;1796853;78;21586;-63
2021/03/21 08:16:30;;;;;;;10.60;8.45;;;;;;;9.06;30.96;98833.49;1776196;79;21132;-63
2021/03/21 08:18:58;;;;;;;12.05;8.60;;;;;;;9.10;31.03;98835.61;1771669;79;21248;-66
2021/03/21 08:21:31;;;;;;;12.50;9.10;;;;;;;9.03;30.90;98829.36;1776297;79;21001;-64
2021/03/21 08:24:16;;;;;;;10.08;8.03;;;;;;;8.93;30.81;98845.19;1804017;78;21116;-63
2021/03/21 08:26:44;;;;;;;10.40;7.85;;;;;;;8.74;30.56;98828.38;1733921;81;21171;-62
2021/03/21 08:29:21;;;;;;;10.90;8.53;;;;;;;8.58;31.23;98816.86;1736291;80;21183;-65
2021/03/21 08:32:08;;;;;;;8.90;7.42;;;;;;;8.60;31.17;98817.50;1721563;82;21420;-60
2021/03/21 08:34:47;;;;;;;17.85;8.68;;;;;;;8.52;31.28;98817.57;1721925;82;21151;-63
2021/03/21 08:37:33;;;;;;;13.32;8.18;;;;;;;8.68;31.21;98809.51;1706133;82;21206;-63
2021/03/21 08:40:33;;;;;;;12.28;8.23;;;;;;;8.72;31.09;98799.39;1722845;82;21084;-64
2021/03/21 08:43:23;;;;;;;10.28;7.20;;;;;;;8.73;31.04;98806.85;1738117;80;21163;-60
2021/03/21 08:46:16;;;;;;;9.30;8.03;;;;;;;8.71;30.61;98792.95;1724036;82;21215;-59
2021/03/21 08:48:44;;;;;;;11.20;8.55;;;;;;;8.63;31.13;98786.67;1733241;80;21061;-63
2021/03/21 08:51:17;;;;;;;9.95;7.30;;;;;;;8.80;31.39;98777.30;1722623;82;21187;-61
2021/03/21 08:54:12;;;;;;;8.78;7.70;;;;;;;8.88;31.16;98776.75;1710655;81;21017;-59
2021/03/21 08:56:56;;;;;;;8.65;7.75;;;;;;;8.89;30.61;98773.60;1708112;82;21159;-60
2021/03/21 08:59:36;;;;;;;9.05;7.78;;;;;;;8.79;30.81;98777.79;1728304;82;21367;-60
2021/03/21 09:02:17;;;;;;;9.75;8.05;;;;;;;8.76;30.56;98771.51;1745232;81;21206;-60
2021/03/21 09:05:05;;;;;;;12.60;8.83;;;;;;;8.60;30.85;98766.33;1728875;81;21617;-60
2021/03/21 09:07:35;;;;;;;15.53;8.30;;;;;;;8.65;31.49;98769.28;1734608;80;21111;-62
2021/03/21 09:10:14;;;;;;;10.55;8.28;;;;;;;8.90;30.77;98760.64;1709040;82;21147;-60
2021/03/21 09:12:49;;;;;;;10.23;8.18;;;;;;;9.07;30.49;98752.91;1703923;82;21357;-60
2021/03/21 09:15:30;;;;;;;11.10;9.90;;;;;;;9.13;30.84;98741.55;1717754;81;21391;-61
2021/03/21 09:18:06;;;;;;;10.18;8.03;;;;;;;9.17;29.86;98741.54;1715399;82;21269;-60
2021/03/21 09:20:36;;;;;;;10.55;8.28;;;;;;;8.99;30.47;98729.92;1714299;82;21594;-63
2021/03/21 09:23:46;;;;;;;12.82;8.80;;;;;;;9.00;30.68;98736.86;1714302;82;21215;-62
2021/03/21 09:26:22;;;;;;;10.08;7.83;;;;;;;9.04;30.80;98730.20;1714463;82;21355;-59
2021/03/21 09:29:01;;;;;;;14.73;7.83;;;;;;;9.06;30.74;98720.73;1714461;82;21153;-61
2021/03/21 09:31:33;;;;;;;10.40;8.93;;;;;;;9.31;30.99;98714.19;1713701;82;21021;-62
2021/03/21 09:35:01;;;;;;;11.50;8.08;;;;;;;9.79;30.34;98720.34;1713701;82;21148;-64
2021/03/21 09:37:34;;;;;;;10.43;7.72;;;;;;;9.73;29.34;98719.73;1586836;88;21157;-62
2021/03/21 09:40:24;;;;;;;13.90;8.58;;;;;;;9.30;30.00;98716.05;1587733;89;21228;-63
2021/03/21 09:42:54;;;;;;;10.08;8.40;;;;;;;8.87;30.57;98711.92;1655110;83;21195;-67
2021/03/21 09:45:25;;;;;;;11.68;7.97;;;;;;;8.60;31.03;98713.30;1673382;85;21174;-62
2021/03/21 09:48:01;;;;;;;9.75;7.92;;;;;;;8.61;31.39;98707.81;1673288;84;21189;-63
2021/03/21 09:50:49;;;;;;;12.58;7.92;;;;;;;8.82;31.30;98706.33;1670995;84;21087;-59
2021/03/21 09:53:30;;;;;;;9.53;7.80;;;;;;;8.85;31.16;98702.83;1703328;82;21401;-68
2021/03/21 09:56:01;;;;;;;13.72;7.40;;;;;;;8.73;31.49;98697.63;1703215;82;21106;-55
2021/03/21 09:58:54;;;;;;;10.93;8.35;;;;;;;8.79;35.66;98674.36;1703488;82;20901;-60
2021/03/21 10:01:52;;;;;;;10.13;9.03;;;;;;;9.01;34.10;98676.67;1712191;83;21050;-61
2021/03/21 10:05:00;;;;;;;11.73;8.13;;;;;;;9.17;32.02;98691.95;1705891;82;21153;-61
2021/03/21 10:07:45;;;;;;;9.20;7.37;;;;;;;9.01;32.23;98687.28;1713258;82;21421;-59
2021/03/21 10:10:26;;;;;;;9.60;7.70;;;;;;;9.02;32.36;98683.11;1698256;82;21166;-61
2021/03/21 10:12:54;;;;;;;9.98;7.72;;;;;;;8.99;32.25;98680.84;1706121;83;21584;-70
2021/03/21 10:15:26;;;;;;;10.72;7.70;;;;;;;8.73;32.27;98678.23;1700020;82;21212;-64
2021/03/21 10:17:59;;;;;;;9.30;7.67;;;;;;;8.56;32.60;98653.66;1703855;83;21149;-59
2021/03/21 10:20:55;;;;;;;8.70;7.78;;;;;;;8.53;32.96;98672.56;1713200;83;21368;-62
2021/03/21 10:23:45;;;;;;;9.33;7.87;;;;;;;8.46;32.86;98667.16;1706125;83;21078;-66
2021/03/21 10:26:12;;;;;;;10.63;7.97;;;;;;;8.45;33.22;98653.58;1710366;82;21054;-62
2021/03/21 10:28:50;;;;;;;10.85;7.80;;;;;;;8.50;33.18;98645.91;1710630;82;21079;-58
2021/03/21 10:31:34;;;;;;;15.65;9.00;;;;;;;8.61;33.68;98638.88;1829606;78;22964;-61
2021/03/21 10:34:08;;;;;;;8.78;7.10;;;;;;;8.64;33.51;98631.89;1727096;81;21130;-65
2021/03/21 10:36:44;;;;;;;10.18;9.10;;;;;;;8.71;32.89;98630.67;1729054;82;21329;-65
2021/03/21 10:39:26;;;;;;;8.53;7.70;;;;;;;8.48;32.94;98639.97;1714652;82;21005;-66
2021/03/21 10:42:07;;;;;;;9.68;8.23;;;;;;;8.41;34.44;98640.36;1740121;81;21036;-58
2021/03/21 10:44:43;;;;;;;10.38;8.90;;;;;;;8.41;33.63;98633.73;1729849;82;21156;-57
2021/03/21 10:47:27;;;;;;;9.95;7.47;;;;;;;8.39;33.86;98626.97;1731555;82;21803;-62
2021/03/21 10:50:03;;;;;;;10.40;7.75;;;;;;;8.43;34.13;98618.48;1756735;81;21185;-59
2021/03/21 10:52:46;;;;;;;9.53;8.03;;;;;;;8.34;33.49;98620.84;1756934;81;21070;-61
2021/03/21 10:55:23;;;;;;;8.33;7.42;;;;;;;8.17;33.84;98614.48;1739962;82;21048;-59
2021/03/21 10:57:52;;;;;;;8.88;7.97;;;;;;;8.11;33.63;98605.94;1723985;80;21002;-60
2021/03/21 11:00:26;;;;;;;11.08;8.98;;;;;;;7.94;33.85;98606.03;1705066;82;21041;-58
2021/03/21 11:03:10;;;;;;;10.88;8.80;;;;;;;7.68;34.16;98600.70;1764876;80;21358;-61
2021/03/21 11:05:45;;;;;;;9.13;8.13;;;;;;;7.46;34.33;98594.34;1748212;79;20973;-60
2021/03/21 11:08:28;;;;;;;10.43;9.13;;;;;;;7.34;34.97;98599.69;1720012;82;21104;-61
2021/03/21 11:10:59;;;;;;;9.38;7.70;;;;;;;7.33;34.95;98579.51;1719454;82;21243;-60
2021/03/21 11:13:33;;;;;;;10.53;8.20;;;;;;;7.10;35.13;98587.37;1701494;82;21762;-60
2021/03/21 11:16:13;;;;;;;11.22;8.45;;;;;;;6.79;35.76;98593.05;1714168;82;21504;-60
2021/03/21 11:18:44;;;;;;;9.95;8.43;;;;;;;6.70;36.10;98582.98;1712274;82;21139;-61
2021/03/21 11:21:20;;;;;;;15.18;9.03;;;;;;;6.68;36.48;98580.17;1729430;82;21078;-61
2021/03/21 11:23:59;;;;;;;9.85;8.35;;;;;;;6.81;36.07;98568.59;1760964;81;21119;-61
2021/03/21 11:26:32;;;;;;;10.38;7.58;;;;;;;6.81;36.07;98568.59;1722176;82;21479;-61
2021/03/21 11:29:10;;;;;;;9.55;8.55;;;;;;;6.91;36.81;98560.49;1719250;82;21368;-61
2021/03/21 11:31:51;;;;;;;11.50;9.10;;;;;;;7.02;36.66;98555.66;1727812;82;21138;-65
2021/03/21 11:34:34;;;;;;;10.85;8.68;;;;;;;7.10;36.41;98541.58;1714144;82;21139;-64
2021/03/21 11:37:21;;;;;;;9.48;8.58;;;;;;;7.12;36.49;98535.61;1732097;82;21111;-67
2021/03/21 11:39:58;;;;;;;10.50;9.18;;;;;;;7.11;36.49;98533.98;1711662;82;21168;-66
2021/03/21 11:42:38;;;;;;;10.70;9.60;;;;;;;7.02;36.57;98525.73;1724207;82;22304;-66
2021/03/21 11:45:28;;;;;;;10.08;8.83;;;;;;;6.91;36.93;98522.16;1714278;82;22302;-65
2021/03/21 11:48:10;;;;;;;10.40;8.40;;;;;;;6.83;37.08;98517.20;1738598;80;20965;-65
2021/03/21 11:50:44;;;;;;;9.88;8.80;;;;;;;6.67;37.28;98507.19;1723007;82;21669;-60
2021/03/21 11:53:20;;;;;;;12.25;9.68;;;;;;;6.55;37.48;98508.02;1724196;82;21184;-61
2021/03/21 11:55:52;;;;;;;12.68;10.20;;;;;;;6.45;37.54;98491.53;1783326;79;21345;-59
2021/03/21 11:58:40;;;;;;;10.30;9.23;;;;;;;6.34;37.99;98495.00;1769865;78;21801;-61
2021/03/21 12:01:23;;;;;;;12.90;9.58;;;;;;;6.32;37.79;98490.39;1775724;79;21164;-59
2021/03/21 12:03:56;;;;;;;11.08;9.90;;;;;;;6.31;38.18;98486.91;1771431;79;21010;-60
2021/03/21 12:06:32;;;;;;;10.63;9.08;;;;;;;6.23;38.05;98493.03;1775404;79;20943;-59
2021/03/21 12:09:31;;;;;;;12.55;9.38;;;;;;;6.17;38.38;98482.33;1769915;79;21195;-61
2021/03/21 12:12:08;;;;;;;14.75;10.00;;;;;;;6.16;38.29;98476.70;1774676;78;20970;-60
2021/03/21 12:14:43;;;;;;;11.55;9.73;;;;;;;6.05;38.47;98473.07;1773882;78;21090;-61
2021/03/21 12:17:28;;;;;;;11.43;9.80;;;;;;;5.92;38.77;98473.58;1766790;79;21110;-62
2021/03/21 12:20:00;;;;;;;10.73;9.63;;;;;;;5.82;39.19;98468.09;1755585;79;21036;-60
2021/03/21 12:22:35;;;;;;;10.28;9.25;;;;;;;5.81;39.78;98459.38;1743768;79;21550;-60
2021/03/21 12:25:31;;;;;;;14.85;10.88;;;;;;;5.73;39.96;98460.69;1764120;78;21184;-59
2021/03/21 12:28:22;;;;;;;15.13;10.83;;;;;;;5.63;39.57;98448.95;1765659;79;21124;-58
2021/03/21 12:30:52;;;;;;;12.23;9.70;;;;;;;5.55;40.13;98449.46;1771048;78;21128;-58
2021/03/21 12:33:31;;;;;;;10.38;9.08;;;;;;;5.54;40.41;98435.93;1766587;78;21148;-60
2021/03/21 12:36:14;;;;;;;11.33;8.53;;;;;;;5.54;39.98;98439.89;1766748;78;22077;-57
2021/03/21 12:38:49;;;;;;;9.00;7.37;;;;;;;5.54;40.50;98426.70;1775812;79;20970;-58
2021/03/21 12:41:42;;;;;;;10.70;8.83;;;;;;;5.70;40.69;98432.48;1765542;78;21017;-60